Time;durP1;ratioP1;P1;durP2;ratioP2;P2;SDS_P1;SDS_P2;PMS_P1;PMS_P2;Temp;Humidity;BMP_temperature;BMP_pressure;BME280_temperature;BME280_humidity;BME280_pressure;Samples;Min_cycle;Max_cycle;Signal;HPM_P1;HPM_P2
2021/07/29 00:00:39;;;;;;;3.88;2.47;;;18.10;56.30;;;;;;5066868;28;20031;-80
2021/07/29 00:03:06;;;;;;;9.73;2.85;;;18.10;56.40;;;;;;5066994;28;20640;-76
2021/07/29 00:05:38;;;;;;;5.50;2.60;;;18.10;56.40;;;;;;5066125;28;20494;-75
2021/07/29 00:08:04;;;;;;;5.10;2.67;;;18.00;56.30;;;;;;5066552;28;20051;-77
2021/07/29 00:10:30;;;;;;;6.43;2.60;;;18.00;56.30;;;;;;5066779;28;20054;-75
2021/07/29 00:12:57;;;;;;;8.38;2.33;;;18.00;56.40;;;;;;5065948;28;20115;-75
2021/07/29 00:15:23;;;;;;;8.57;2.85;;;18.00;56.40;;;;;;5067144;28;20029;-75
2021/07/29 00:20:18;;;;;;;5.45;2.42;;;18.00;56.50;;;;;;5066857;28;20028;-75
2021/07/29 00:22:45;;;;;;;5.90;2.72;;;18.00;56.60;;;;;;5064942;28;20032;-77
2021/07/29 00:25:14;;;;;;;7.65;2.58;;;17.90;56.40;;;;;;5065164;28;20094;-77
2021/07/29 00:27:41;;;;;;;4.55;2.30;;;18.00;56.70;;;;;;5066702;28;20024;-76
2021/07/29 00:30:08;;;;;;;7.07;2.70;;;18.00;56.70;;;;;;5064685;28;20032;-77
2021/07/29 00:32:34;;;;;;;8.35;2.30;;;17.90;56.60;;;;;;5066531;28;20028;-77
2021/07/29 00:35:16;;;;;;;5.20;2.65;;;17.90;56.60;;;;;;5066107;28;20426;-77
2021/07/29 00:37:46;;;;;;;4.50;2.10;;;17.90;56.70;;;;;;5066714;28;20040;-77
2021/07/29 00:40:13;;;;;;;4.55;2.63;;;17.90;56.70;;;;;;5064272;28;20039;-77
2021/07/29 00:42:39;;;;;;;5.53;2.53;;;17.90;56.70;;;;;;5066290;28;20500;-78
2021/07/29 00:45:06;;;;;;;5.03;2.10;;;17.90;56.80;;;;;;5066340;28;20016;-83
2021/07/29 00:47:33;;;;;;;4.97;2.35;;;17.80;56.60;;;;;;5065103;28;20311;-77
2021/07/29 00:49:59;;;;;;;6.05;2.60;;;17.90;56.80;;;;;;5066207;28;20487;-81
2021/07/29 00:52:25;;;;;;;7.38;3.28;;;17.80;56.70;;;;;;5066970;28;20341;-77
2021/07/29 00:54:52;;;;;;;5.85;2.42;;;17.90;56.90;;;;;;5066634;28;20361;-79
2021/07/29 00:57:19;;;;;;;6.05;2.40;;;17.80;56.70;;;;;;5066187;28;20064;-77
2021/07/29 00:59:45;;;;;;;5.32;2.55;;;17.90;57.00;;;;;;5065842;28;20043;-76
2021/07/29 01:02:11;;;;;;;5.63;2.40;;;17.80;56.80;;;;;;5065197;28;20169;-76
2021/07/29 01:04:37;;;;;;;6.57;2.55;;;17.80;56.80;;;;;;5065281;28;20070;-77
2021/07/29 01:07:03;;;;;;;6.95;2.38;;;17.80;56.80;;;;;;5066731;28;20161;-77
2021/07/29 01:09:29;;;;;;;5.32;2.25;;;17.80;56.80;;;;;;5066321;28;20561;-76
2021/07/29 01:11:55;;;;;;;5.20;2.33;;;17.80;56.90;;;;;;5066237;28;20052;-77
2021/07/29 01:14:21;;;;;;;6.45;2.38;;;17.80;57.00;;;;;;5065619;28;20072;-77
2021/07/29 01:16:47;;;;;;;8.30;3.05;;;17.70;56.80;;;;;;5069716;28;20469;-76
2021/07/29 01:19:14;;;;;;;2.92;1.92;;;17.70;56.80;;;;;;5069565;28;20125;-76
2021/07/29 01:21:40;;;;;;;4.10;2.38;;;17.70;56.80;;;;;;5069959;28;20028;-76
2021/07/29 01:24:07;;;;;;;4.18;2.15;;;17.70;57.00;;;;;;5069889;28;20443;-76
2021/07/29 01:26:33;;;;;;;6.30;2.40;;;17.70;56.90;;;;;;5070109;28;20139;-77
2021/07/29 01:29:00;;;;;;;5.78;2.45;;;17.60;56.80;;;;;;5068566;28;20029;-76
2021/07/29 01:31:27;;;;;;;4.93;1.98;;;17.60;56.80;;;;;;5048990;28;20031;-76
2021/07/29 01:33:54;;;;;;;5.70;2.25;;;17.60;56.80;;;;;;5059617;28;20028;-76
2021/07/29 01:36:21;;;;;;;5.88;2.30;;;17.60;56.90;;;;;;5050740;28;20286;-78
2021/07/29 01:38:47;;;;;;;4.07;2.25;;;17.60;56.90;;;;;;5057606;28;20123;-77
2021/07/29 01:41:13;;;;;;;3.58;1.70;;;17.60;56.90;;;;;;5071300;28;20115;-76
2021/07/29 01:43:39;;;;;;;5.00;2.30;;;17.60;57.00;;;;;;5070537;28;20028;-77
2021/07/29 01:46:05;;;;;;;5.85;2.20;;;17.50;56.80;;;;;;5068148;28;20078;-76
2021/07/29 01:48:34;;;;;;;4.22;2.15;;;17.50;56.80;;;;;;5062924;28;20078;-85
2021/07/29 01:51:00;;;;;;;3.97;2.35;;;17.50;56.90;;;;;;5054028;28;20056;-77
2021/07/29 01:53:26;;;;;;;6.88;2.35;;;17.50;56.90;;;;;;5054059;28;20029;-77
2021/07/29 01:55:52;;;;;;;3.72;1.65;;;17.50;56.90;;;;;;5053867;28;20029;-77
2021/07/29 01:58:18;;;;;;;4.78;2.22;;;17.40;56.80;;;;;;5054043;28;20053;-77
2021/07/29 02:00:46;;;;;;;4.30;2.05;;;17.40;56.80;;;;;;5054056;28;20025;-77
2021/07/29 02:03:13;;;;;;;5.75;2.33;;;17.40;56.90;;;;;;5054509;28;20415;-78
2021/07/29 02:05:39;;;;;;;3.40;2.53;;;17.40;56.90;;;;;;5053836;28;20033;-85
2021/07/29 02:08:06;;;;;;;4.07;2.60;;;17.40;57.00;;;;;;5068993;28;20561;-78
2021/07/29 02:10:32;;;;;;;4.35;2.08;;;17.30;56.80;;;;;;5051128;28;20029;-78
2021/07/29 02:12:59;;;;;;;5.00;2.10;;;17.30;56.90;;;;;;5051289;28;20033;-80
2021/07/29 02:15:26;;;;;;;4.60;2.65;;;17.30;56.90;;;;;;5052781;28;20033;-76
2021/07/29 02:17:59;;;;;;;3.25;2.10;;;17.30;57.00;;;;;;5052399;28;20120;-83
2021/07/29 02:20:26;;;;;;;10.13;2.95;;;17.20;56.90;;;;;;5051746;28;20029;-78
2021/07/29 02:22:52;;;;;;;5.93;2.53;;;17.20;56.90;;;;;;5052288;28;20443;-88
2021/07/29 02:25:18;;;;;;;6.05;2.95;;;17.20;56.90;;;;;;5052291;28;20521;-77
2021/07/29 02:27:44;;;;;;;4.78;2.53;;;17.20;57.00;;;;;;5052165;28;20087;-77
2021/07/29 02:30:11;;;;;;;5.57;2.28;;;17.20;57.00;;;;;;5052303;28;20021;-79
2021/07/29 02:32:37;;;;;;;4.95;2.60;;;17.20;57.10;;;;;;5052016;28;20484;-78
2021/07/29 02:35:04;;;;;;;4.13;2.53;;;17.10;56.90;;;;;;5051357;28;20411;-78
2021/07/29 02:37:30;;;;;;;3.28;2.35;;;17.10;56.90;;;;;;5051958;28;20039;-86
2021/07/29 02:39:56;;;;;;;4.93;2.50;;;17.10;57.00;;;;;;5053201;28;20028;-78
2021/07/29 02:42:22;;;;;;;3.65;2.50;;;17.10;57.10;;;;;;5052478;28;20035;-77
2021/07/29 02:44:48;;;;;;;3.40;2.42;;;17.10;57.10;;;;;;5052119;28;20074;-77
2021/07/29 02:47:14;;;;;;;2.45;2.15;;;17.00;56.90;;;;;;5051778;28;20132;-78
2021/07/29 02:49:40;;;;;;;6.07;2.58;;;17.00;57.00;;;;;;5051850;28;20040;-78
2021/07/29 02:52:07;;;;;;;4.20;2.60;;;17.00;57.00;;;;;;5052075;28;20478;-82
2021/07/29 02:54:34;;;;;;;3.72;2.33;;;16.90;56.90;;;;;;5052075;28;20086;-83
2021/07/29 02:56:59;;;;;;;4.15;2.53;;;17.00;57.10;;;;;;5051622;28;20539;-77
2021/07/29 02:59:26;;;;;;;3.03;2.20;;;16.90;57.00;;;;;;5051905;28;20032;-77
2021/07/29 03:01:51;;;;;;;4.30;2.40;;;16.90;57.00;;;;;;5051495;28;20032;-78
2021/07/29 03:04:20;;;;;;;3.85;2.70;;;16.90;57.00;;;;;;5051719;28;20029;-77
2021/07/29 03:06:47;;;;;;;3.75;2.30;;;16.90;57.00;;;;;;5051141;28;20040;-84
2021/07/29 03:09:14;;;;;;;4.82;2.63;;;16.90;57.10;;;;;;5010986;28;1192809;-78
2021/07/29 03:11:40;;;;;;;4.45;2.40;;;16.90;57.10;;;;;;5052649;28;20040;-82
2021/07/29 03:14:06;;;;;;;6.20;2.88;;;16.90;57.10;;;;;;5052866;28;20539;-77
2021/07/29 03:16:32;;;;;;;3.70;2.50;;;16.80;57.00;;;;;;5052571;28;20037;-77
2021/07/29 03:18:58;;;;;;;3.92;2.13;;;16.80;57.00;;;;;;5052352;28;20106;-79
2021/07/29 03:21:24;;;;;;;5.43;2.67;;;16.80;57.10;;;;;;5052275;28;20025;-78
2021/07/29 03:23:50;;;;;;;6.60;2.90;;;16.80;57.10;;;;;;5050734;28;20037;-78
2021/07/29 03:26:16;;;;;;;4.38;2.22;;;16.80;57.10;;;;;;5052378;28;20044;-77
2021/07/29 03:28:42;;;;;;;5.82;2.72;;;16.70;57.00;;;;;;5052113;28;20488;-78
2021/07/29 03:31:08;;;;;;;7.00;2.92;;;16.70;57.10;;;;;;5052728;28;20037;-77
2021/07/29 03:33:34;;;;;;;4.03;2.05;;;16.70;57.10;;;;;;5052036;28;20029;-77
2021/07/29 03:35:59;;;;;;;5.25;2.40;;;16.70;57.10;;;;;;5051312;28;20029;-77
2021/07/29 03:38:25;;;;;;;3.60;2.17;;;16.70;57.20;;;;;;5066625;28;20045;-78
2021/07/29 03:40:51;;;;;;;4.75;2.72;;;16.70;57.20;;;;;;5051802;28;20037;-77
2021/07/29 03:43:17;;;;;;;5.47;2.63;;;16.60;57.10;;;;;;5052421;28;20365;-77
2021/07/29 03:45:44;;;;;;;3.75;2.58;;;16.60;57.10;;;;;;5050832;28;20052;-81
2021/07/29 03:48:11;;;;;;;6.65;3.00;;;16.60;57.10;;;;;;5052150;28;20074;-77
2021/07/29 03:50:40;;;;;;;4.75;2.70;;;16.60;57.10;;;;;;5051548;28;20071;-77
2021/07/29 03:53:07;;;;;;;2.45;2.10;;;16.60;57.20;;;;;;5050565;28;20167;-78
2021/07/29 03:55:33;;;;;;;4.10;2.60;;;16.60;57.20;;;;;;5050522;28;20060;-77
2021/07/29 03:57:59;;;;;;;5.43;2.92;;;16.60;57.20;;;;;;5051909;28;20041;-78
2021/07/29 04:00:26;;;;;;;2.85;2.22;;;16.50;57.10;;;;;;5052090;28;20033;-88
2021/07/29 04:02:52;;;;;;;6.00;2.75;;;16.50;57.10;;;;;;5052696;28;20021;-77
2021/07/29 04:05:18;;;;;;;4.07;2.10;;;16.50;57.20;;;;;;5051401;28;20035;-77
2021/07/29 04:07:44;;;;;;;3.60;2.10;;;16.50;57.20;;;;;;5066572;28;20045;-77
2021/07/29 04:10:10;;;;;;;3.58;2.28;;;16.40;57.10;;;;;;5066813;28;20037;-77
2021/07/29 04:12:37;;;;;;;5.30;2.03;;;16.50;57.30;;;;;;5066812;28;20029;-76
2021/07/29 04:15:04;;;;;;;4.45;2.58;;;16.40;57.10;;;;;;5066528;28;20498;-77
2021/07/29 04:17:30;;;;;;;2.88;2.38;;;16.50;57.30;;;;;;5051685;28;20484;-86
2021/07/29 04:19:58;;;;;;;5.68;2.33;;;16.40;57.20;;;;;;5067133;28;20033;-75
2021/07/29 04:22:25;;;;;;;3.88;3.05;;;16.40;57.20;;;;;;5051259;28;20025;-79
2021/07/29 04:24:58;;;;;;;3.97;2.55;;;16.40;57.20;;;;;;5051222;28;20059;-78
2021/07/29 04:27:24;;;;;;;6.70;2.80;;;16.40;57.30;;;;;;5049752;28;20090;-77
2021/07/29 04:29:51;;;;;;;3.80;2.20;;;16.30;57.10;;;;;;5051482;28;20037;-76
2021/07/29 04:32:20;;;;;;;5.28;2.30;;;16.30;57.20;;;;;;5051189;28;20032;-83
2021/07/29 04:34:46;;;;;;;3.60;2.05;;;16.30;57.20;;;;;;5051407;28;20029;-78
2021/07/29 04:37:12;;;;;;;3.75;2.38;;;16.30;57.20;;;;;;5050936;28;20043;-76
2021/07/29 04:39:42;;;;;;;4.65;2.38;;;16.30;57.30;;;;;;5051154;28;20508;-78
2021/07/29 04:42:10;;;;;;;7.20;2.58;;;16.30;57.30;;;;;;5051363;28;20183;-78
2021/07/29 04:44:36;;;;;;;4.50;2.40;;;16.20;57.10;;;;;;5066622;28;20109;-78
2021/07/29 04:47:02;;;;;;;6.40;2.40;;;16.20;57.20;;;;;;5061580;28;20048;-79
2021/07/29 04:49:28;;;;;;;5.57;2.38;;;16.20;57.20;;;;;;5064024;28;20371;-76
2021/07/29 04:51:54;;;;;;;4.43;3.00;;;16.20;57.20;;;;;;5050966;28;20427;-76
2021/07/29 04:54:20;;;;;;;4.13;2.60;;;16.20;57.30;;;;;;5056661;28;20028;-78
2021/07/29 04:56:46;;;;;;;3.50;3.05;;;16.20;57.30;;;;;;5047911;28;20033;-78
2021/07/29 04:59:12;;;;;;;6.25;3.03;;;16.20;57.30;;;;;;5064445;28;20098;-78
2021/07/29 05:01:38;;;;;;;5.75;2.90;;;16.20;57.40;;;;;;5065888;28;20227;-78
2021/07/29 05:04:05;;;;;;;5.22;2.45;;;16.20;57.40;;;;;;5065101;28;20036;-76
2021/07/29 05:06:31;;;;;;;4.10;2.63;;;16.10;57.30;;;;;;5059116;28;20371;-77
2021/07/29 05:08:57;;;;;;;7.15;2.85;;;16.10;57.30;;;;;;5062837;28;20059;-85
2021/07/29 05:11:23;;;;;;;4.47;2.35;;;16.10;57.30;;;;;;5066271;28;20028;-76
2021/07/29 05:13:55;;;;;;;5.07;2.42;;;16.10;57.40;;;;;;5065790;28;20309;-76
2021/07/29 05:16:21;;;;;;;5.05;2.60;;;16.10;57.40;;;;;;5066186;28;20024;-77
2021/07/29 05:18:47;;;;;;;4.45;2.70;;;16.10;57.40;;;;;;5065351;28;20048;-80
2021/07/29 05:21:13;;;;;;;5.47;2.90;;;16.10;57.50;;;;;;5065908;28;20029;-76
2021/07/29 05:23:39;;;;;;;5.30;2.90;;;16.10;57.50;;;;;;5066035;28;20483;-79
2021/07/29 05:26:05;;;;;;;3.70;2.90;;;16.10;57.50;;;;;;5065716;28;20025;-76
2021/07/29 05:28:31;;;;;;;4.55;2.88;;;16.10;57.60;;;;;;5063476;28;20047;-76
2021/07/29 05:30:58;;;;;;;4.72;2.90;;;16.10;57.60;;;;;;5046272;28;20417;-77
2021/07/29 05:33:24;;;;;;;3.00;2.22;;;16.10;57.60;;;;;;5057200;28;20498;-78
2021/07/29 05:35:50;;;;;;;4.53;2.83;;;16.20;57.80;;;;;;5065265;28;20274;-77
2021/07/29 05:38:16;;;;;;;6.78;2.95;;;16.10;57.70;;;;;;5062533;28;20051;-74
2021/07/29 05:40:42;;;;;;;11.65;3.20;;;16.20;57.90;;;;;;5062708;28;20074;-74
2021/07/29 05:43:08;;;;;;;10.82;3.90;;;16.20;58.20;;;;;;5061342;28;20083;-74
2021/07/29 05:45:34;;;;;;;8.50;3.70;;;16.20;59.00;;;;;;5051836;28;20101;-72
2021/07/29 05:48:00;;;;;;;6.75;2.90;;;16.20;58.60;;;;;;5061456;28;20608;-73
2021/07/29 05:50:26;;;;;;;5.97;2.90;;;16.30;59.00;;;;;;5064246;28;20044;-73
2021/07/29 05:52:52;;;;;;;6.38;3.13;;;16.30;59.00;;;;;;5065454;28;20064;-74
2021/07/29 05:55:18;;;;;;;8.48;3.13;;;16.30;59.10;;;;;;5065709;28;20109;-74
2021/07/29 05:57:44;;;;;;;8.27;3.42;;;16.40;59.30;;;;;;5064852;28;20033;-74
2021/07/29 06:00:11;;;;;;;10.10;4.18;;;16.40;59.30;;;;;;5050031;28;20086;-75
2021/07/29 06:02:37;;;;;;;10.38;3.83;;;16.50;59.50;;;;;;5062529;28;20413;-76
2021/07/29 06:05:03;;;;;;;9.52;3.72;;;16.50;59.60;;;;;;5067120;28;20020;-72
2021/07/29 06:07:30;;;;;;;6.75;3.13;;;16.70;60.00;;;;;;5061171;28;20037;-74
2021/07/29 06:09:56;;;;;;;8.32;3.33;;;16.70;59.90;;;;;;5066496;28;20056;-77
2021/07/29 06:12:27;;;;;;;6.68;3.15;;;16.80;59.90;;;;;;5051905;28;20029;-74
2021/07/29 06:14:53;;;;;;;9.90;3.50;;;16.90;59.90;;;;;;5062798;28;20094;-73
2021/07/29 06:17:27;;;;;;;6.65;3.33;;;17.00;59.90;;;;;;5060090;28;20059;-73
2021/07/29 06:19:53;;;;;;;6.45;2.78;;;17.00;59.80;;;;;;5058658;28;20193;-78
2021/07/29 06:22:19;;;;;;;12.77;4.18;;;17.10;59.90;;;;;;5059852;28;20119;-82
2021/07/29 06:24:45;;;;;;;9.80;3.20;;;17.10;59.80;;;;;;5041935;28;20546;-74
2021/07/29 06:27:11;;;;;;;7.47;3.25;;;17.20;59.90;;;;;;5068145;28;20034;-74
2021/07/29 06:29:37;;;;;;;7.88;3.00;;;17.20;59.80;;;;;;5066987;28;20057;-74
2021/07/29 06:32:04;;;;;;;9.32;3.40;;;17.20;59.70;;;;;;5052790;28;20270;-74
2021/07/29 06:34:30;;;;;;;10.90;3.60;;;17.20;59.80;;;;;;5061898;28;20230;-73
2021/07/29 06:36:56;;;;;;;9.10;3.85;;;17.20;59.90;;;;;;5061813;28;20025;-74
2021/07/29 06:39:22;;;;;;;5.43;2.90;;;17.30;60.20;;;;;;5046248;28;20047;-77
2021/07/29 06:41:48;;;;;;;6.38;3.38;;;17.30;60.30;;;;;;5066658;28;20667;-74
2021/07/29 06:44:14;;;;;;;11.75;3.25;;;17.40;60.40;;;;;;5064713;28;20032;-77
2021/07/29 06:46:41;;;;;;;5.55;2.97;;;17.40;60.40;;;;;;5066510;28;20035;-76
2021/07/29 06:49:07;;;;;;;8.65;3.85;;;17.60;60.70;;;;;;5066027;28;20119;-77
2021/07/29 06:51:37;;;;;;;6.90;3.53;;;17.70;60.80;;;;;;5083500;28;20659;-76
2021/07/29 06:54:06;;;;;;;6.82;3.40;;;17.90;61.10;;;;;;5066706;28;20416;-77
2021/07/29 06:56:32;;;;;;;7.70;3.45;;;18.20;61.40;;;;;;5068688;28;20550;-77
2021/07/29 06:58:59;;;;;;;6.30;3.05;;;18.40;61.40;;;;;;5066969;28;20046;-77
2021/07/29 07:01:25;;;;;;;10.32;3.20;;;18.70;61.50;;;;;;5047305;28;20404;-78
2021/07/29 07:03:52;;;;;;;10.27;3.15;;;18.90;61.40;;;;;;5061366;28;20129;-77
2021/07/29 07:06:18;;;;;;;8.60;3.20;;;19.10;61.30;;;;;;5068046;28;20031;-79
2021/07/29 07:08:44;;;;;;;8.93;3.45;;;19.40;61.20;;;;;;5065558;28;20052;-76
2021/07/29 07:11:17;;;;;;;9.50;3.22;;;19.60;61.10;;;;;;5067786;28;20498;-77
2021/07/29 07:13:45;;;;;;;7.32;2.75;;;19.80;60.80;;;;;;5066420;28;20032;-78
2021/07/29 07:16:12;;;;;;;4.93;2.53;;;20.10;61.00;;;;;;5068006;28;20379;-79
2021/07/29 07:18:39;;;;;;;9.88;3.70;;;20.30;60.80;;;;;;5067451;28;20044;-78
2021/07/29 07:21:09;;;;;;;6.25;2.50;;;20.50;60.50;;;;;;5067384;28;20029;-76
2021/07/29 07:23:38;;;;;;;10.48;3.55;;;20.80;60.30;;;;;;5066341;28;20040;-80
2021/07/29 07:26:05;;;;;;;6.32;3.25;;;21.00;60.10;;;;;;5067508;28;20032;-78
2021/07/29 07:28:31;;;;;;;9.23;2.95;;;21.20;59.90;;;;;;5067200;28;20043;-78
2021/07/29 07:30:58;;;;;;;8.75;3.00;;;21.50;59.80;;;;;;5065874;28;20027;-76
2021/07/29 07:33:23;;;;;;;6.53;2.80;;;21.70;59.50;;;;;;5068000;28;20525;-76
2021/07/29 07:35:52;;;;;;;10.07;3.22;;;21.90;59.30;;;;;;5067027;28;20028;-78
2021/07/29 07:38:19;;;;;;;9.70;2.75;;;22.10;59.00;;;;;;5066279;28;20534;-75
2021/07/29 07:40:45;;;;;;;8.00;2.63;;;22.30;58.70;;;;;;5066790;28;20074;-76
2021/07/29 07:43:11;;;;;;;12.02;3.58;;;22.50;58.40;;;;;;5048749;28;20033;-77
2021/07/29 07:45:37;;;;;;;7.05;2.80;;;22.80;58.30;;;;;;5067596;28;20029;-75
2021/07/29 07:48:04;;;;;;;10.70;3.30;;;22.90;57.90;;;;;;5082929;28;20064;-76
2021/07/29 07:50:30;;;;;;;8.48;2.65;;;23.10;57.80;;;;;;5066557;28;20032;-75
2021/07/29 07:52:56;;;;;;;11.27;2.50;;;23.30;57.70;;;;;;5066432;28;20046;-76
2021/07/29 07:55:22;;;;;;;7.45;2.75;;;23.50;57.40;;;;;;5049134;28;20028;-75
2021/07/29 07:57:47;;;;;;;9.95;2.40;;;23.70;57.10;;;;;;5066759;28;20075;-75
2021/07/29 08:00:15;;;;;;;9.13;2.72;;;23.90;56.90;;;;;;5066750;28;20127;-75
2021/07/29 08:02:41;;;;;;;4.95;2.38;;;23.90;56.40;;;;;;5066141;28;20206;-80
2021/07/29 08:05:07;;;;;;;9.65;2.63;;;24.00;56.40;;;;;;5065756;28;20032;-78
2021/07/29 08:07:33;;;;;;;5.43;2.83;;;24.20;56.40;;;;;;5066359;28;20454;-76
2021/07/29 08:09:59;;;;;;;8.82;2.58;;;24.40;56.30;;;;;;5061677;28;20111;-77
2021/07/29 08:12:25;;;;;;;6.53;2.00;;;24.60;56.10;;;;;;5057969;28;20060;-76
2021/07/29 08:14:51;;;;;;;6.40;3.25;;;24.70;55.70;;;;;;5062628;28;20036;-75
2021/07/29 08:17:17;;;;;;;6.32;2.78;;;24.90;55.80;;;;;;5066352;28;20028;-75
2021/07/29 08:19:43;;;;;;;7.80;3.08;;;25.00;55.60;;;;;;5065070;28;20033;-75
2021/07/29 08:22:09;;;;;;;6.13;2.53;;;24.90;55.00;;;;;;5066219;28;20060;-76
2021/07/29 08:24:35;;;;;;;9.02;2.45;;;24.80;54.80;;;;;;5066208;28;20111;-76
2021/07/29 08:27:01;;;;;;;8.25;2.15;;;25.00;55.00;;;;;;5065149;28;20484;-74
2021/07/29 08:29:30;;;;;;;3.83;2.45;;;25.10;54.50;;;;;;5065661;28;20032;-73
2021/07/29 08:31:58;;;;;;;5.97;2.15;;;24.90;53.90;;;;;;5065234;28;20035;-74
2021/07/29 08:34:24;;;;;;;4.78;2.13;;;24.70;53.50;;;;;;5065959;28;20557;-73
2021/07/29 08:36:50;;;;;;;5.75;2.40;;;24.60;53.60;;;;;;5066148;28;20047;-74
2021/07/29 08:39:16;;;;;;;5.95;1.88;;;24.70;54.30;;;;;;5056907;28;20044;-74
2021/07/29 08:41:42;;;;;;;4.43;1.75;;;24.80;53.20;;;;;;5045614;28;20032;-75
2021/07/29 08:44:08;;;;;;;10.32;2.13;;;24.80;52.60;;;;;;5061281;28;20039;-73
2021/07/29 08:46:35;;;;;;;5.38;2.05;;;24.90;52.60;;;;;;5063849;28;20032;-74
2021/07/29 08:49:03;;;;;;;7.65;1.92;;;25.00;52.40;;;;;;5064649;28;20375;-73
2021/07/29 08:51:29;;;;;;;5.32;2.38;;;24.90;52.00;;;;;;5065814;28;20077;-75
2021/07/29 08:53:59;;;;;;;5.28;1.95;;;24.90;52.00;;;;;;5065739;28;20403;-74
2021/07/29 08:56:25;;;;;;;9.32;2.03;;;24.70;51.60;;;;;;5066026;28;20445;-74
2021/07/29 08:58:52;;;;;;;6.53;1.67;;;24.40;51.40;;;;;;5067356;28;20048;-74
2021/07/29 09:01:18;;;;;;;6.22;2.00;;;24.10;51.00;;;;;;5066914;28;20066;-74
2021/07/29 09:03:44;;;;;;;9.85;2.00;;;24.00;51.10;;;;;;5066235;28;20060;-77
2021/07/29 09:06:15;;;;;;;7.35;1.88;;;24.00;51.20;;;;;;5066276;28;20484;-75
2021/07/29 09:08:44;;;;;;;3.42;1.73;;;23.90;51.00;;;;;;5065149;28;20067;-76
2021/07/29 09:11:38;;;;;;;3.28;1.40;;;23.90;50.90;;;;;;5064734;28;20029;-76
2021/07/29 09:14:13;;;;;;;8.93;1.80;;;23.80;50.70;;;;;;5065224;28;20035;-79
2021/07/29 09:17:01;;;;;;;4.95;1.65;;;23.90;50.90;;;;;;5064353;28;20533;-79
2021/07/29 09:19:37;;;;;;;4.53;1.67;;;24.00;50.70;;;;;;5057058;28;20383;-77
2021/07/29 09:22:23;;;;;;;8.57;1.75;;;24.10;50.80;;;;;;5060750;28;20362;-78
2021/07/29 09:25:05;;;;;;;4.07;1.73;;;24.10;50.60;;;;;;5045934;28;20183;-77
2021/07/29 09:27:40;;;;;;;6.15;1.77;;;24.10;50.50;;;;;;5047336;28;20033;-76
2021/07/29 09:30:29;;;;;;;4.90;1.60;;;24.00;50.40;;;;;;5065503;28;20033;-77
2021/07/29 09:33:03;;;;;;;7.00;2.13;;;24.00;50.70;;;;;;5064103;28;20032;-77
2021/07/29 09:35:36;;;;;;;3.33;1.60;;;24.00;50.70;;;;;;5064650;28;20043;-76
2021/07/29 09:38:25;;;;;;;6.28;2.10;;;24.00;50.60;;;;;;5069391;28;20044;-75
2021/07/29 09:41:01;;;;;;;8.20;2.00;;;24.00;50.50;;;;;;5069046;28;20064;-74
2021/07/29 09:43:30;;;;;;;5.50;1.90;;;24.10;50.50;;;;;;5067923;28;20033;-75
2021/07/29 09:45:58;;;;;;;5.88;1.88;;;24.00;50.30;;;;;;5069271;28;20032;-76
2021/07/29 09:48:24;;;;;;;4.85;1.50;;;24.00;50.30;;;;;;5068475;28;20032;-78
2021/07/29 09:50:55;;;;;;;7.30;1.50;;;23.90;50.20;;;;;;5068974;28;20029;-77
2021/07/29 09:53:25;;;;;;;5.78;1.92;;;23.80;50.00;;;;;;5068022;28;20051;-76
2021/07/29 09:55:51;;;;;;;5.25;2.22;;;23.80;50.10;;;;;;5069157;28;20385;-76
2021/07/29 09:58:17;;;;;;;2.67;1.67;;;23.80;50.00;;;;;;5067804;28;20127;-76
2021/07/29 10:00:44;;;;;;;8.23;2.22;;;23.80;49.80;;;;;;5069741;28;20476;-77
2021/07/29 10:03:10;;;;;;;5.22;1.33;;;23.70;49.70;;;;;;5068996;28;20040;-77
2021/07/29 10:05:48;;;;;;;6.22;1.70;;;23.70;49.70;;;;;;5048344;28;20108;-76
2021/07/29 10:08:25;;;;;;;4.95;1.48;;;23.60;49.40;;;;;;5055051;28;20064;-75
2021/07/29 10:10:51;;;;;;;3.72;1.88;;;23.60;49.60;;;;;;5068090;28;20024;-75
2021/07/29 10:13:18;;;;;;;4.18;1.67;;;23.60;49.60;;;;;;5069140;28;20025;-74
2021/07/29 10:15:46;;;;;;;1.60;1.25;;;23.60;49.50;;;;;;5069171;28;20032;-76
2021/07/29 10:18:14;;;;;;;6.88;1.60;;;23.70;49.70;;;;;;5068150;28;20072;-76
2021/07/29 10:20:41;;;;;;;5.78;1.73;;;23.70;49.80;;;;;;5068412;28;20377;-75
2021/07/29 10:23:13;;;;;;;10.13;2.00;;;23.70;49.70;;;;;;5067506;28;20039;-75
2021/07/29 10:26:02;;;;;;;2.97;1.30;;;23.70;49.70;;;;;;5068742;28;20443;-76
2021/07/29 10:28:35;;;;;;;4.57;2.13;;;23.70;49.60;;;;;;5067152;28;20384;-75
2021/07/29 10:31:02;;;;;;;4.70;1.77;;;23.70;49.70;;;;;;5068514;28;20545;-74
2021/07/29 10:33:29;;;;;;;4.97;2.30;;;23.70;49.80;;;;;;5067558;28;20484;-76
2021/07/29 10:35:56;;;;;;;5.30;2.00;;;23.80;50.10;;;;;;5067595;28;20377;-77
2021/07/29 10:38:51;;;;;;;5.78;1.88;;;23.80;50.10;;;;;;5066342;28;20033;-76
2021/07/29 10:41:22;;;;;;;6.20;2.13;;;23.80;49.90;;;;;;5067694;28;20395;-74
2021/07/29 10:43:49;;;;;;;4.00;1.65;;;23.80;49.90;;;;;;5067913;28;20032;-76
2021/07/29 10:46:15;;;;;;;5.32;2.13;;;23.80;50.00;;;;;;5068642;28;20170;-76
2021/07/29 10:48:43;;;;;;;5.00;2.00;;;23.80;50.20;;;;;;5067728;28;20127;-76
2021/07/29 10:51:13;;;;;;;5.07;2.20;;;23.80;50.30;;;;;;5068522;28;20375;-76
2021/07/29 10:53:43;;;;;;;5.25;1.80;;;23.90;50.30;;;;;;5067605;28;20388;-76
2021/07/29 10:56:13;;;;;;;8.10;2.70;;;23.90;50.20;;;;;;5068701;28;20029;-77
2021/07/29 10:58:46;;;;;;;7.07;1.83;;;24.00;50.40;;;;;;5066508;28;20047;-76
2021/07/29 11:01:14;;;;;;;8.20;2.65;;;24.10;50.50;;;;;;5068194;28;20032;-76
2021/07/29 11:03:57;;;;;;;4.60;1.98;;;24.10;50.50;;;;;;5067758;28;20039;-76
2021/07/29 11:06:22;;;;;;;4.95;2.00;;;24.20;50.70;;;;;;5066705;28;20032;-76
2021/07/29 11:08:49;;;;;;;4.13;2.15;;;24.30;50.80;;;;;;5049612;28;20487;-76
2021/07/29 11:11:16;;;;;;;5.43;2.00;;;24.40;50.70;;;;;;5061101;28;20029;-75
2021/07/29 11:13:50;;;;;;;5.63;2.55;;;24.50;50.70;;;;;;5074244;28;20131;-74
2021/07/29 11:16:16;;;;;;;7.35;2.35;;;24.60;50.50;;;;;;5066421;28;20071;-76
2021/07/29 11:18:58;;;;;;;4.22;2.25;;;24.70;50.50;;;;;;5066053;28;20044;-74
2021/07/29 11:21:24;;;;;;;6.93;2.30;;;24.70;50.00;;;;;;5066695;28;20021;-73
2021/07/29 11:23:50;;;;;;;3.95;2.15;;;24.70;50.00;;;;;;5067264;28;20117;-74
2021/07/29 11:26:16;;;;;;;4.85;2.00;;;24.70;50.00;;;;;;5083181;28;20052;-74
2021/07/29 11:28:42;;;;;;;5.35;2.47;;;24.70;50.00;;;;;;5067238;28;20522;-74
2021/07/29 11:31:08;;;;;;;8.25;3.05;;;24.70;50.00;;;;;;5066454;28;20032;-74
2021/07/29 11:33:34;;;;;;;4.25;2.45;;;24.70;50.00;;;;;;5067308;28;20025;-73
2021/07/29 11:36:09;;;;;;;4.78;2.55;;;24.80;50.20;;;;;;5067338;28;20043;-74
2021/07/29 11:38:36;;;;;;;5.22;2.17;;;24.80;50.10;;;;;;5067203;28;20040;-74
2021/07/29 11:41:03;;;;;;;5.18;2.60;;;24.90;50.20;;;;;;5065903;28;20526;-76
2021/07/29 11:43:33;;;;;;;9.30;2.67;;;24.90;50.00;;;;;;5065038;28;20032;-73
2021/07/29 11:46:07;;;;;;;6.15;2.83;;;24.80;49.80;;;;;;5065857;28;20036;-73
2021/07/29 11:48:33;;;;;;;8.82;2.35;;;24.80;49.80;;;;;;5060262;28;20115;-74
2021/07/29 11:50:59;;;;;;;4.78;2.50;;;24.70;49.70;;;;;;5064802;28;20116;-73
2021/07/29 11:53:40;;;;;;;7.78;3.13;;;24.70;49.70;;;;;;5067561;28;20029;-76
2021/07/29 11:56:08;;;;;;;6.80;2.65;;;24.80;49.90;;;;;;5066899;28;20033;-74
2021/07/29 11:58:54;;;;;;;4.13;2.70;;;24.80;50.00;;;;;;5065704;28;20480;-75
2021/07/29 12:01:20;;;;;;;5.03;2.80;;;24.90;50.20;;;;;;5057031;28;20036;-74
2021/07/29 12:03:49;;;;;;;10.38;3.10;;;25.10;50.40;;;;;;5081475;28;20040;-72
2021/07/29 12:06:16;;;;;;;6.80;3.00;;;25.20;50.30;;;;;;5067224;28;20032;-77
2021/07/29 12:08:44;;;;;;;3.70;2.53;;;25.40;50.00;;;;;;5066117;28;20045;-76
2021/07/29 12:11:13;;;;;;;4.38;2.15;;;25.50;49.70;;;;;;5065299;28;20047;-75
2021/07/29 12:13:43;;;;;;;4.70;2.40;;;25.60;49.60;;;;;;5064690;28;20035;-73
2021/07/29 12:16:09;;;;;;;5.75;2.70;;;25.70;49.40;;;;;;5066737;28;20115;-73
2021/07/29 12:18:36;;;;;;;7.90;2.40;;;25.80;49.40;;;;;;5066051;28;20089;-73
2021/07/29 12:21:05;;;;;;;4.15;2.22;;;25.90;49.20;;;;;;5066014;28;20029;-75
2021/07/29 12:23:32;;;;;;;6.45;2.80;;;26.00;49.10;;;;;;5065508;28;20040;-76
2021/07/29 12:26:11;;;;;;;5.53;2.47;;;26.10;48.80;;;;;;5065214;28;20178;-74
2021/07/29 12:28:46;;;;;;;6.97;2.53;;;26.10;48.40;;;;;;5065960;28;20025;-74
2021/07/29 12:31:27;;;;;;;5.25;2.28;;;26.10;48.10;;;;;;5066448;28;20029;-74
2021/07/29 12:34:01;;;;;;;6.00;2.40;;;26.20;48.00;;;;;;5066419;28;20407;-75
2021/07/29 12:36:47;;;;;;;8.20;2.70;;;26.30;47.80;;;;;;5048207;28;20036;-76
2021/07/29 12:39:15;;;;;;;5.07;2.30;;;26.40;47.80;;;;;;5065801;28;20119;-75
2021/07/29 12:41:42;;;;;;;3.35;2.30;;;26.40;47.60;;;;;;5065031;28;20074;-72
2021/07/29 12:44:10;;;;;;;9.00;2.65;;;26.40;47.50;;;;;;5065866;28;20489;-72
2021/07/29 12:46:37;;;;;;;5.28;2.67;;;26.50;47.60;;;;;;5066403;28;20032;-73
2021/07/29 12:49:03;;;;;;;4.18;2.08;;;26.70;47.50;;;;;;5064630;28;20021;-72
2021/07/29 12:51:37;;;;;;;2.85;2.30;;;26.80;47.10;;;;;;5066810;28;20086;-73